sensor_id;sensor_type;location;lat;lon;timestamp;pressure;altitude;pressure_sealevel;temperature;humidity
4735;BME280;2381;50.676;12.612;2022-11-15T00:02:47;97115.50;;;7.15;100.00
4735;BME280;2381;50.676;12.612;2022-11-15T00:06:09;97118.16;;;7.07;100.00
4735;BME280;2381;50.676;12.612;2022-11-15T00:09:30;97117.66;;;6.95;100.00
4735;BME280;2381;50.676;12.612;2022-11-15T00:12:51;97124.03;;;7.01;100.00
4735;BME280;2381;50.676;12.612;2022-11-15T00:16:12;97126.00;;;6.99;100.00
4735;BME280;2381;50.676;12.612;2022-11-15T00:19:35;97109.66;;;6.89;100.00
4735;BME280;2381;50.676;12.612;2022-11-15T00:22:56;97123.09;;;6.86;100.00
4735;BME280;2381;50.676;12.612;2022-11-15T00:26:17;97115.88;;;6.80;100.00
4735;BME280;2381;50.676;12.612;2022-11-15T00:29:38;97120.47;;;6.86;100.00
4735;BME280;2381;50.676;12.612;2022-11-15T00:33:03;97114.75;;;6.74;100.00
4735;BME280;2381;50.676;12.612;2022-11-15T00:36:26;97111.94;;;6.84;100.00
4735;BME280;2381;50.676;12.612;2022-11-15T00:39:47;97113.91;;;6.82;100.00
4735;BME280;2381;50.676;12.612;2022-11-15T00:43:09;97108.34;;;6.85;100.00
4735;BME280;2381;50.676;12.612;2022-11-15T00:46:30;97111.94;;;6.84;100.00
4735;BME280;2381;50.676;12.612;2022-11-15T00:49:52;97111.28;;;6.74;100.00
4735;BME280;2381;50.676;12.612;2022-11-15T00:53:14;97097.41;;;6.65;100.00
4735;BME280;2381;50.676;12.612;2022-11-15T00:56:36;97104.44;;;6.73;100.00
4735;BME280;2381;50.676;12.612;2022-11-15T00:59:57;97096.09;;;6.69;100.00
4735;BME280;2381;50.676;12.612;2022-11-15T01:03:19;97094.59;;;6.83;100.00
4735;BME280;2381;50.676;12.612;2022-11-15T01:06:40;97100.50;;;6.85;100.00
4735;BME280;2381;50.676;12.612;2022-11-15T01:10:02;97103.28;;;6.91;100.00
4735;BME280;2381;50.676;12.612;2022-11-15T01:13:24;97091.00;;;6.84;100.00
4735;BME280;2381;50.676;12.612;2022-11-15T01:16:45;97092.16;;;6.89;100.00
4735;BME280;2381;50.676;12.612;2022-11-15T01:20:07;97088.72;;;6.97;100.00
4735;BME280;2381;50.676;12.612;2022-11-15T01:23:28;97088.69;;;7.05;100.00
4735;BME280;2381;50.676;12.612;2022-11-15T01:26:52;97085.75;;;7.00;100.00
4735;BME280;2381;50.676;12.612;2022-11-15T01:30:13;97095.25;;;6.93;100.00
4735;BME280;2381;50.676;12.612;2022-11-15T01:33:35;97072.38;;;6.87;100.00
4735;BME280;2381;50.676;12.612;2022-11-15T01:36:57;97068.13;;;6.86;100.00
4735;BME280;2381;50.676;12.612;2022-11-15T01:40:18;97074.66;;;6.90;100.00
4735;BME280;2381;50.676;12.612;2022-11-15T01:43:41;97074.66;;;6.90;100.00
4735;BME280;2381;50.676;12.612;2022-11-15T01:47:03;97071.41;;;6.88;100.00
4735;BME280;2381;50.676;12.612;2022-11-15T01:50:25;97070.91;;;6.84;100.00
4735;BME280;2381;50.676;12.612;2022-11-15T01:53:49;97075.66;;;6.81;100.00
4735;BME280;2381;50.676;12.612;2022-11-15T01:57:12;97071.75;;;6.69;100.00
4735;BME280;2381;50.676;12.612;2022-11-15T02:00:35;97059.97;;;6.57;100.00
4735;BME280;2381;50.676;12.612;2022-11-15T02:03:57;97061.47;;;6.59;100.00
4735;BME280;2381;50.676;12.612;2022-11-15T02:07:20;97068.47;;;6.67;100.00
4735;BME280;2381;50.676;12.612;2022-11-15T02:10:42;97069.13;;;6.69;100.00
4735;BME280;2381;50.676;12.612;2022-11-15T02:14:03;97066.34;;;6.70;100.00
4735;BME280;2381;50.676;12.612;2022-11-15T02:17:31;97060.94;;;6.72;100.00
4735;BME280;2381;50.676;12.612;2022-11-15T02:24:42;97057.38;;;6.65;100.00
4735;BME280;2381;50.676;12.612;2022-11-15T02:31:50;97055.41;;;6.67;100.00
4735;BME280;2381;50.676;12.612;2022-11-15T02:35:16;97052.09;;;6.73;100.00
4735;BME280;2381;50.676;12.612;2022-11-15T02:38:40;97055.06;;;6.78;100.00
4735;BME280;2381;50.676;12.612;2022-11-15T02:42:07;97050.75;;;6.85;100.00
4735;BME280;2381;50.676;12.612;2022-11-15T02:45:50;97051.44;;;6.79;100.00
4735;BME280;2381;50.676;12.612;2022-11-15T02:49:15;97049.13;;;6.84;100.00
4735;BME280;2381;50.676;12.612;2022-11-15T02:52:37;97051.94;;;6.82;100.00
4735;BME280;2381;50.676;12.612;2022-11-15T02:55:58;97044.59;;;6.78;100.00
4735;BME280;2381;50.676;12.612;2022-11-15T02:59:24;97040.97;;;6.87;100.00
4735;BME280;2381;50.676;12.612;2022-11-15T03:02:57;97042.59;;;6.96;100.00
4735;BME280;2381;50.676;12.612;2022-11-15T03:06:26;97037.34;;;6.96;100.00
4735;BME280;2381;50.676;12.612;2022-11-15T03:09:51;97035.03;;;7.01;100.00
4735;BME280;2381;50.676;12.612;2022-11-15T03:13:19;97026.38;;;7.00;100.00
4735;BME280;2381;50.676;12.612;2022-11-15T03:16:44;97019.66;;;7.06;100.00
4735;BME280;2381;50.676;12.612;2022-11-15T03:20:08;97025.84;;;7.05;100.00
4735;BME280;2381;50.676;12.612;2022-11-15T03:23:32;97024.22;;;7.04;100.00
4735;BME280;2381;50.676;12.612;2022-11-15T03:26:54;97019.19;;;6.94;100.00
4735;BME280;2381;50.676;12.612;2022-11-15T03:30:16;97022.47;;;6.88;100.00
4735;BME280;2381;50.676;12.612;2022-11-15T03:33:38;97027.41;;;6.83;100.00
4735;BME280;2381;50.676;12.612;2022-11-15T03:37:00;97020.84;;;6.79;100.00
4735;BME280;2381;50.676;12.612;2022-11-15T03:40:25;97028.38;;;6.74;100.00
4735;BME280;2381;50.676;12.612;2022-11-15T03:43:50;97020.38;;;6.76;100.00
4735;BME280;2381;50.676;12.612;2022-11-15T03:47:16;97028.09;;;6.61;100.00
4735;BME280;2381;50.676;12.612;2022-11-15T03:50:39;97023.50;;;6.63;100.00
4735;BME280;2381;50.676;12.612;2022-11-15T03:54:02;97020.72;;;6.65;100.00
4735;BME280;2381;50.676;12.612;2022-11-15T03:57:25;97017.94;;;6.66;100.00
4735;BME280;2381;50.676;12.612;2022-11-15T04:00:46;97021.88;;;6.70;100.00
4735;BME280;2381;50.676;12.612;2022-11-15T04:04:07;97013.19;;;6.78;100.00
4735;BME280;2381;50.676;12.612;2022-11-15T04:07:29;97020.69;;;6.81;100.00
4735;BME280;2381;50.676;12.612;2022-11-15T04:10:51;97022.50;;;6.80;100.00
4735;BME280;2381;50.676;12.612;2022-11-15T04:14:13;97014.81;;;6.79;100.00
4735;BME280;2381;50.676;12.612;2022-11-15T04:17:35;97020.69;;;6.73;100.00
4735;BME280;2381;50.676;12.612;2022-11-15T04:20:56;97008.94;;;6.69;100.00
4735;BME280;2381;50.676;12.612;2022-11-15T04:24:35;97008.13;;;6.68;100.00
4735;BME280;2381;50.676;12.612;2022-11-15T04:27:57;97006.00;;;6.64;100.00
4735;BME280;2381;50.676;12.612;2022-11-15T04:31:19;97008.59;;;6.64;100.00
4735;BME280;2381;50.676;12.612;2022-11-15T04:34:40;97000.94;;;6.70;100.00
4735;BME280;2381;50.676;12.612;2022-11-15T04:38:02;97005.00;;;6.73;100.00
4735;BME280;2381;50.676;12.612;2022-11-15T04:41:24;97001.91;;;6.69;100.00
4735;BME280;2381;50.676;12.612;2022-11-15T04:44:45;96998.78;;;6.74;100.00
4735;BME280;2381;50.676;12.612;2022-11-15T04:48:08;96996.16;;;6.74;100.00
4735;BME280;2381;50.676;12.612;2022-11-15T04:51:29;96996.00;;;6.75;100.00
4735;BME280;2381;50.676;12.612;2022-11-15T04:54:50;96994.22;;;6.76;100.00
4735;BME280;2381;50.676;12.612;2022-11-15T04:58:12;96997.47;;;6.78;100.00
4735;BME280;2381;50.676;12.612;2022-11-15T05:01:33;96989.66;;;6.70;100.00
4735;BME280;2381;50.676;12.612;2022-11-15T05:05:02;96988.00;;;6.69;100.00
4735;BME280;2381;50.676;12.612;2022-11-15T05:08:23;96986.03;;;6.71;100.00
4735;BME280;2381;50.676;12.612;2022-11-15T05:11:45;96988.00;;;6.77;100.00
4735;BME280;2381;50.676;12.612;2022-11-15T05:15:06;96985.53;;;6.75;100.00
4735;BME280;2381;50.676;12.612;2022-11-15T05:18:28;96981.63;;;6.71;100.00
4735;BME280;2381;50.676;12.612;2022-11-15T05:21:50;96985.69;;;6.74;100.00
4735;BME280;2381;50.676;12.612;2022-11-15T05:25:12;96977.03;;;6.73;100.00
4735;BME280;2381;50.676;12.612;2022-11-15T05:28:33;96970.34;;;6.71;100.00
4735;BME280;2381;50.676;12.612;2022-11-15T05:31:56;96971.16;;;6.71;100.00
4735;BME280;2381;50.676;12.612;2022-11-15T05:35:18;96970.69;;;6.68;100.00
4735;BME280;2381;50.676;12.612;2022-11-15T05:38:42;96966.94;;;6.62;100.00
4735;BME280;2381;50.676;12.612;2022-11-15T05:42:04;96964.81;;;6.58;100.00
4735;BME280;2381;50.676;12.612;2022-11-15T05:45:27;96967.09;;;6.53;100.00
4735;BME280;2381;50.676;12.612;2022-11-15T05:48:49;96969.72;;;6.53;100.00
4735;BME280;2381;50.676;12.612;2022-11-15T05:52:11;96967.44;;;6.50;100.00
4735;BME280;2381;50.676;12.612;2022-11-15T05:55:36;96968.78;;;6.46;100.00
4735;BME280;2381;50.676;12.612;2022-11-15T05:58:59;96964.19;;;6.48;100.00
4735;BME280;2381;50.676;12.612;2022-11-15T06:02:21;96973.31;;;6.52;100.00
4735;BME280;2381;50.676;12.612;2022-11-15T06:05:42;96971.03;;;6.49;100.00
4735;BME280;2381;50.676;12.612;2022-11-15T06:09:04;96971.41;;;6.30;100.00
4735;BME280;2381;50.676;12.612;2022-11-15T06:12:27;96973.38;;;6.28;100.00
4735;BME280;2381;50.676;12.612;2022-11-15T06:15:48;96967.00;;;6.30;100.00
4735;BME280;2381;50.676;12.612;2022-11-15T06:19:09;96978.25;;;6.31;100.00
4735;BME280;2381;50.676;12.612;2022-11-15T06:22:30;96974.00;;;6.30;100.00
4735;BME280;2381;50.676;12.612;2022-11-15T06:25:52;96974.66;;;6.32;100.00
4735;BME280;2381;50.676;12.612;2022-11-15T06:29:15;96974.50;;;6.33;100.00
4735;BME280;2381;50.676;12.612;2022-11-15T06:32:36;96974.34;;;6.27;100.00
4735;BME280;2381;50.676;12.612;2022-11-15T06:35:59;96980.56;;;6.10;100.00
4735;BME280;2381;50.676;12.612;2022-11-15T06:39:21;96978.91;;;6.09;100.00
4735;BME280;2381;50.676;12.612;2022-11-15T06:42:42;96979.25;;;5.90;100.00
4735;BME280;2381;50.676;12.612;2022-11-15T06:46:05;96973.88;;;5.99;100.00
4735;BME280;2381;50.676;12.612;2022-11-15T06:49:27;96982.38;;;6.01;100.00
4735;BME280;2381;50.676;12.612;2022-11-15T06:52:48;96986.44;;;6.04;100.00
4735;BME280;2381;50.676;12.612;2022-11-15T06:56:10;96987.41;;;6.03;100.00
4735;BME280;2381;50.676;12.612;2022-11-15T06:59:31;96992.97;;;6.00;100.00
4735;BME280;2381;50.676;12.612;2022-11-15T07:03:00;96993.63;;;6.02;100.00
4735;BME280;2381;50.676;12.612;2022-11-15T07:06:22;96991.34;;;6.07;100.00
4735;BME280;2381;50.676;12.612;2022-11-15T07:09:43;96992.63;;;6.11;100.00
4735;BME280;2381;50.676;12.612;2022-11-15T07:13:05;96991.50;;;6.13;100.00
4735;BME280;2381;50.676;12.612;2022-11-15T07:16:26;96995.75;;;6.22;100.00
4735;BME280;2381;50.676;12.612;2022-11-15T07:19:48;96998.88;;;6.34;100.00
4735;BME280;2381;50.676;12.612;2022-11-15T07:23:09;97001.63;;;6.40;100.00
4735;BME280;2381;50.676;12.612;2022-11-15T07:26:31;96988.38;;;6.50;100.00
4735;BME280;2381;50.676;12.612;2022-11-15T07:29:52;96985.41;;;6.61;100.00
4735;BME280;2381;50.676;12.612;2022-11-15T07:33:14;96984.75;;;6.67;100.00
4735;BME280;2381;50.676;12.612;2022-11-15T07:36:37;96981.09;;;6.84;100.00
4735;BME280;2381;50.676;12.612;2022-11-15T07:39:58;96978.47;;;6.92;100.00
4735;BME280;2381;50.676;12.612;2022-11-15T07:43:19;96985.31;;;6.93;100.00
4735;BME280;2381;50.676;12.612;2022-11-15T07:46:40;96985.00;;;6.96;100.00
4735;BME280;2381;50.676;12.612;2022-11-15T07:50:01;96987.53;;;7.20;100.00
4735;BME280;2381;50.676;12.612;2022-11-15T07:53:24;96973.44;;;7.21;100.00
4735;BME280;2381;50.676;12.612;2022-11-15T07:56:45;96972.41;;;7.30;100.00
4735;BME280;2381;50.676;12.612;2022-11-15T08:00:07;96966.81;;;7.33;100.00
4735;BME280;2381;50.676;12.612;2022-11-15T08:03:28;96973.19;;;7.38;100.00
4735;BME280;2381;50.676;12.612;2022-11-15T08:06:50;96972.16;;;7.47;100.00
4735;BME280;2381;50.676;12.612;2022-11-15T08:10:13;96964.72;;;7.58;100.00
4735;BME280;2381;50.676;12.612;2022-11-15T08:13:36;96961.06;;;7.67;100.00
4735;BME280;2381;50.676;12.612;2022-11-15T08:16:57;96969.84;;;7.74;100.00
4735;BME280;2381;50.676;12.612;2022-11-15T08:20:19;96966.78;;;7.93;100.00
4735;BME280;2381;50.676;12.612;2022-11-15T08:23:40;96966.44;;;8.19;100.00
4735;BME280;2381;50.676;12.612;2022-11-15T08:27:02;96962.75;;;8.28;100.00
4735;BME280;2381;50.676;12.612;2022-11-15T08:30:24;96963.84;;;8.33;100.00
4735;BME280;2381;50.676;12.612;2022-11-15T08:33:45;96960.81;;;8.44;100.00
4735;BME280;2381;50.676;12.612;2022-11-15T08:37:06;96964.16;;;8.53;100.00
4735;BME280;2381;50.676;12.612;2022-11-15T08:40:28;96961.00;;;8.57;100.00
4735;BME280;2381;50.676;12.612;2022-11-15T08:43:50;96947.97;;;8.78;100.00
4735;BME280;2381;50.676;12.612;2022-11-15T08:47:11;96958.06;;;8.89;100.00
4735;BME280;2381;50.676;12.612;2022-11-15T08:50:33;96958.69;;;8.91;100.00
4735;BME280;2381;50.676;12.612;2022-11-15T08:53:55;96947.97;;;9.07;100.00
4735;BME280;2381;50.676;12.612;2022-11-15T08:57:16;96953.66;;;9.25;100.00
4735;BME280;2381;50.676;12.612;2022-11-15T09:00:39;96959.34;;;9.43;100.00
4735;BME280;2381;50.676;12.612;2022-11-15T09:04:00;96958.13;;;9.60;100.00
4735;BME280;2381;50.676;12.612;2022-11-15T09:07:23;96973.19;;;9.87;100.00
4735;BME280;2381;50.676;12.612;2022-11-15T09:10:45;96979.94;;;10.11;100.00
4735;BME280;2381;50.676;12.612;2022-11-15T09:14:06;96991.00;;;10.27;100.00
4735;BME280;2381;50.676;12.612;2022-11-15T09:17:28;97000.03;;;10.39;100.00
4735;BME280;2381;50.676;12.612;2022-11-15T09:20:49;96998.22;;;10.67;100.00
4735;BME280;2381;50.676;12.612;2022-11-15T09:24:10;97013.72;;;10.83;100.00
4735;BME280;2381;50.676;12.612;2022-11-15T09:27:34;97018.31;;;11.02;100.00
4735;BME280;2381;50.676;12.612;2022-11-15T09:30:56;97030.59;;;11.16;100.00
4735;BME280;2381;50.676;12.612;2022-11-15T09:34:20;97026.63;;;11.33;100.00
4735;BME280;2381;50.676;12.612;2022-11-15T09:37:41;97023.91;;;11.54;100.00
4735;BME280;2381;50.676;12.612;2022-11-15T09:44:48;97035.09;;;12.09;100.00
4735;BME280;2381;50.676;12.612;2022-11-15T09:51:51;97044.75;;;12.69;100.00
4735;BME280;2381;50.676;12.612;2022-11-15T09:54:55;97045.97;;;12.73;100.00
4735;BME280;2381;50.676;12.612;2022-11-15T09:58:00;97049.22;;;12.81;97.15
4735;BME280;2381;50.676;12.612;2022-11-15T10:01:07;97046.63;;;13.00;97.70
4735;BME280;2381;50.676;12.612;2022-11-15T10:04:14;97049.03;;;13.21;96.98
4735;BME280;2381;50.676;12.612;2022-11-15T10:07:20;97052.25;;;13.36;93.40
4735;BME280;2381;50.676;12.612;2022-11-15T10:10:27;97054.47;;;13.52;94.35
4735;BME280;2381;50.676;12.612;2022-11-15T10:13:32;97050.34;;;13.63;94.35
4735;BME280;2381;50.676;12.612;2022-11-15T10:19:56;97053.50;;;13.97;89.55
4735;BME280;2381;50.676;12.612;2022-11-15T10:23:10;97050.66;;;13.92;88.27
4735;BME280;2381;50.676;12.612;2022-11-15T10:26:15;97038.09;;;13.81;93.85
4735;BME280;2381;50.676;12.612;2022-11-15T10:29:18;97034.38;;;13.89;90.71
4735;BME280;2381;50.676;12.612;2022-11-15T10:32:27;97033.25;;;14.09;87.10
4735;BME280;2381;50.676;12.612;2022-11-15T10:35:30;97022.25;;;14.12;89.50
4735;BME280;2381;50.676;12.612;2022-11-15T10:38:35;97022.22;;;14.25;90.20
4735;BME280;2381;50.676;12.612;2022-11-15T10:41:54;97015.88;;;14.26;88.81
4735;BME280;2381;50.676;12.612;2022-11-15T10:44:57;97010.50;;;14.39;88.02
4735;BME280;2381;50.676;12.612;2022-11-15T10:51:22;97009.69;;;14.70;84.66
4735;BME280;2381;50.676;12.612;2022-11-15T10:54:34;97012.53;;;14.68;78.91
4735;BME280;2381;50.676;12.612;2022-11-15T10:57:38;97005.03;;;14.65;82.39
4735;BME280;2381;50.676;12.612;2022-11-15T11:00:41;96997.41;;;14.75;82.44
4735;BME280;2381;50.676;12.612;2022-11-15T11:03:44;96996.47;;;14.88;85.40
4735;BME280;2381;50.676;12.612;2022-11-15T11:06:48;96997.88;;;14.90;82.77
4735;BME280;2381;50.676;12.612;2022-11-15T11:09:57;96993.72;;;15.01;79.84
4735;BME280;2381;50.676;12.612;2022-11-15T11:13:12;96992.53;;;15.15;77.70
4735;BME280;2381;50.676;12.612;2022-11-15T11:19:52;96980.88;;;15.40;78.62
4735;BME280;2381;50.676;12.612;2022-11-15T11:23:01;96978.22;;;15.58;76.14
4735;BME280;2381;50.676;12.612;2022-11-15T11:26:10;96973.00;;;15.52;76.83
4735;BME280;2381;50.676;12.612;2022-11-15T11:29:20;96969.22;;;15.59;73.62
4735;BME280;2381;50.676;12.612;2022-11-15T11:35:45;96969.69;;;15.56;74.11
4735;BME280;2381;50.676;12.612;2022-11-15T11:38:51;96965.16;;;15.57;73.24
4735;BME280;2381;50.676;12.612;2022-11-15T11:41:59;96961.84;;;15.61;73.19
4735;BME280;2381;50.676;12.612;2022-11-15T11:45:10;96948.34;;;15.63;74.36
4735;BME280;2381;50.676;12.612;2022-11-15T11:48:20;96958.97;;;15.63;72.83
4735;BME280;2381;50.676;12.612;2022-11-15T11:51:27;96949.50;;;15.66;70.19
4735;BME280;2381;50.676;12.612;2022-11-15T11:54:34;96943.50;;;15.60;75.19
4735;BME280;2381;50.676;12.612;2022-11-15T11:57:41;96938.09;;;15.66;72.81
4735;BME280;2381;50.676;12.612;2022-11-15T12:00:47;96928.13;;;15.79;72.65
4735;BME280;2381;50.676;12.612;2022-11-15T12:03:57;96930.91;;;15.84;74.85
4735;BME280;2381;50.676;12.612;2022-11-15T12:07:03;96933.63;;;15.96;71.66
4735;BME280;2381;50.676;12.612;2022-11-15T12:10:15;96930.28;;;16.00;67.67
4735;BME280;2381;50.676;12.612;2022-11-15T12:13:21;96927.22;;;16.15;67.22
4735;BME280;2381;50.676;12.612;2022-11-15T12:16:27;96925.81;;;16.24;66.84
4735;BME280;2381;50.676;12.612;2022-11-15T12:19:30;96911.75;;;16.35;66.90
4735;BME280;2381;50.676;12.612;2022-11-15T12:22:36;96913.56;;;16.52;65.14
4735;BME280;2381;50.676;12.612;2022-11-15T12:25:42;96909.59;;;16.55;67.38
4735;BME280;2381;50.676;12.612;2022-11-15T12:28:49;96914.16;;;16.13;66.86
4735;BME280;2381;50.676;12.612;2022-11-15T12:32:13;96903.47;;;16.43;68.11
4735;BME280;2381;50.676;12.612;2022-11-15T12:35:26;96896.69;;;16.47;69.82
4735;BME280;2381;50.676;12.612;2022-11-15T12:52:05;96878.63;;;16.37;68.09
4735;BME280;2381;50.676;12.612;2022-11-15T12:58:27;96874.38;;;16.48;67.89
4735;BME280;2381;50.676;12.612;2022-11-15T13:04:53;96870.78;;;16.54;69.80
4735;BME280;2381;50.676;12.612;2022-11-15T13:07:58;96863.97;;;16.46;66.83
4735;BME280;2381;50.676;12.612;2022-11-15T13:17:41;96864.63;;;16.30;70.96
4735;BME280;2381;50.676;12.612;2022-11-15T13:20:45;96863.63;;;16.02;73.94
4735;BME280;2381;50.676;12.612;2022-11-15T13:23:52;96854.66;;;16.14;73.68
4735;BME280;2381;50.676;12.612;2022-11-15T13:26:55;96856.25;;;16.15;73.88
4735;BME280;2381;50.676;12.612;2022-11-15T13:30:13;96860.78;;;16.15;72.55
4735;BME280;2381;50.676;12.612;2022-11-15T13:33:17;96853.81;;;16.14;71.91
4735;BME280;2381;50.676;12.612;2022-11-15T13:36:22;96853.72;;;16.09;69.55
4735;BME280;2381;50.676;12.612;2022-11-15T13:39:27;96860.88;;;16.08;74.03
4735;BME280;2381;50.676;12.612;2022-11-15T13:42:30;96858.13;;;16.15;73.96
4735;BME280;2381;50.676;12.612;2022-11-15T13:45:33;96848.50;;;16.14;71.63
4735;BME280;2381;50.676;12.612;2022-11-15T13:48:36;96846.78;;;16.08;70.12
4735;BME280;2381;50.676;12.612;2022-11-15T13:51:40;96856.47;;;16.14;67.13
4735;BME280;2381;50.676;12.612;2022-11-15T13:54:47;96842.97;;;16.15;71.22
4735;BME280;2381;50.676;12.612;2022-11-15T13:57:53;96847.94;;;16.12;66.26
4735;BME280;2381;50.676;12.612;2022-11-15T14:01:00;96844.72;;;16.10;71.47
4735;BME280;2381;50.676;12.612;2022-11-15T14:04:04;96840.53;;;16.14;67.80
4735;BME280;2381;50.676;12.612;2022-11-15T14:07:14;96841.94;;;16.05;70.67
4735;BME280;2381;50.676;12.612;2022-11-15T14:13:30;96827.13;;;15.86;76.21
4735;BME280;2381;50.676;12.612;2022-11-15T14:16:33;96815.31;;;15.82;78.48
4735;BME280;2381;50.676;12.612;2022-11-15T14:19:38;96811.34;;;15.73;78.67
4735;BME280;2381;50.676;12.612;2022-11-15T14:22:50;96823.69;;;15.67;77.04
4735;BME280;2381;50.676;12.612;2022-11-15T14:25:53;96813.22;;;15.72;77.37
4735;BME280;2381;50.676;12.612;2022-11-15T14:28:57;96816.84;;;15.49;81.67
4735;BME280;2381;50.676;12.612;2022-11-15T14:32:21;96812.06;;;15.21;82.34
4735;BME280;2381;50.676;12.612;2022-11-15T14:35:24;96809.00;;;15.06;83.90
4735;BME280;2381;50.676;12.612;2022-11-15T14:38:26;96813.66;;;14.75;83.54
4735;BME280;2381;50.676;12.612;2022-11-15T14:41:33;96803.19;;;14.62;90.01
4735;BME280;2381;50.676;12.612;2022-11-15T14:44:40;96791.00;;;14.18;94.86
4735;BME280;2381;50.676;12.612;2022-11-15T14:47:46;96771.38;;;14.01;99.89
4735;BME280;2381;50.676;12.612;2022-11-15T14:50:49;96758.63;;;13.67;100.00
4735;BME280;2381;50.676;12.612;2022-11-15T14:53:52;96762.06;;;13.43;98.63
4735;BME280;2381;50.676;12.612;2022-11-15T14:56:56;96761.22;;;13.49;94.85
4735;BME280;2381;50.676;12.612;2022-11-15T15:00:01;96753.44;;;13.54;94.08
4735;BME280;2381;50.676;12.612;2022-11-15T15:03:13;96755.72;;;13.51;94.04
4735;BME280;2381;50.676;12.612;2022-11-15T15:06:16;96743.72;;;13.17;96.85
4735;BME280;2381;50.676;12.612;2022-11-15T15:09:19;96746.28;;;12.99;98.95
4735;BME280;2381;50.676;12.612;2022-11-15T15:12:22;96738.28;;;12.69;100.00
4735;BME280;2381;50.676;12.612;2022-11-15T15:15:29;96735.75;;;12.36;100.00
4735;BME280;2381;50.676;12.612;2022-11-15T15:18:33;96726.25;;;12.16;100.00
4735;BME280;2381;50.676;12.612;2022-11-15T15:21:36;96725.84;;;12.19;100.00
4735;BME280;2381;50.676;12.612;2022-11-15T15:24:40;96715.06;;;12.20;100.00
4735;BME280;2381;50.676;12.612;2022-11-15T15:27:43;96716.09;;;12.19;100.00
4735;BME280;2381;50.676;12.612;2022-11-15T15:30:47;96713.94;;;11.97;100.00
4735;BME280;2381;50.676;12.612;2022-11-15T15:33:51;96707.88;;;11.77;100.00
4735;BME280;2381;50.676;12.612;2022-11-15T15:37:06;96706.63;;;11.53;100.00
4735;BME280;2381;50.676;12.612;2022-11-15T15:40:10;96699.53;;;11.15;100.00
4735;BME280;2381;50.676;12.612;2022-11-15T15:43:14;96698.13;;;11.32;100.00
4735;BME280;2381;50.676;12.612;2022-11-15T15:46:18;96699.72;;;11.26;100.00
4735;BME280;2381;50.676;12.612;2022-11-15T15:49:21;96689.78;;;10.96;100.00
4735;BME280;2381;50.676;12.612;2022-11-15T15:52:24;96678.22;;;10.97;100.00
4735;BME280;2381;50.676;12.612;2022-11-15T15:55:27;96681.47;;;10.99;100.00
4735;BME280;2381;50.676;12.612;2022-11-15T15:58:30;96671.28;;;10.63;100.00
4735;BME280;2381;50.676;12.612;2022-11-15T16:01:35;96663.13;;;10.45;100.00
4735;BME280;2381;50.676;12.612;2022-11-15T16:04:38;96663.53;;;10.42;100.00
4735;BME280;2381;50.676;12.612;2022-11-15T16:07:42;96644.91;;;10.50;100.00
4735;BME280;2381;50.676;12.612;2022-11-15T16:10:45;96657.41;;;10.29;100.00
4735;BME280;2381;50.676;12.612;2022-11-15T16:13:48;96645.44;;;10.26;100.00
4735;BME280;2381;50.676;12.612;2022-11-15T16:16:52;96637.78;;;10.38;100.00
4735;BME280;2381;50.676;12.612;2022-11-15T16:19:55;96635.09;;;10.19;100.00
4735;BME280;2381;50.676;12.612;2022-11-15T16:22:58;96629.63;;;10.20;100.00
4735;BME280;2381;50.676;12.612;2022-11-15T16:26:10;96622.97;;;10.18;100.00
4735;BME280;2381;50.676;12.612;2022-11-15T16:29:16;96615.47;;;10.21;100.00
4735;BME280;2381;50.676;12.612;2022-11-15T16:32:20;96622.72;;;10.06;100.00
4735;BME280;2381;50.676;12.612;2022-11-15T16:35:24;96623.72;;;10.05;100.00
4735;BME280;2381;50.676;12.612;2022-11-15T16:38:27;96623.41;;;9.87;100.00
4735;BME280;2381;50.676;12.612;2022-11-15T16:41:29;96615.47;;;9.81;100.00
4735;BME280;2381;50.676;12.612;2022-11-15T16:44:33;96615.69;;;9.45;100.00
4735;BME280;2381;50.676;12.612;2022-11-15T16:47:37;96605.53;;;9.36;100.00
4735;BME280;2381;50.676;12.612;2022-11-15T16:50:40;96611.13;;;9.26;100.00
4735;BME280;2381;50.676;12.612;2022-11-15T16:53:43;96604.94;;;9.13;100.00
4735;BME280;2381;50.676;12.612;2022-11-15T16:56:46;96602.91;;;9.08;100.00
4735;BME280;2381;50.676;12.612;2022-11-15T16:59:49;96590.25;;;9.18;100.00
4735;BME280;2381;50.676;12.612;2022-11-15T17:02:53;96596.03;;;9.07;100.00
4735;BME280;2381;50.676;12.612;2022-11-15T17:05:56;96594.63;;;9.05;100.00
4735;BME280;2381;50.676;12.612;2022-11-15T17:09:00;96585.84;;;9.25;100.00
4735;BME280;2381;50.676;12.612;2022-11-15T17:12:02;96596.38;;;8.98;100.00
4735;BME280;2381;50.676;12.612;2022-11-15T17:15:05;96596.81;;;9.01;100.00
4735;BME280;2381;50.676;12.612;2022-11-15T17:18:11;96597.56;;;8.95;100.00
4735;BME280;2381;50.676;12.612;2022-11-15T17:21:16;96589.31;;;8.77;100.00
4735;BME280;2381;50.676;12.612;2022-11-15T17:24:19;96599.84;;;8.56;100.00
4735;BME280;2381;50.676;12.612;2022-11-15T17:27:22;96589.09;;;8.51;100.00
4735;BME280;2381;50.676;12.612;2022-11-15T17:30:25;96590.28;;;8.13;100.00
4735;BME280;2381;50.676;12.612;2022-11-15T17:33:29;96590.28;;;8.13;100.00
4735;BME280;2381;50.676;12.612;2022-11-15T17:36:32;96568.63;;;8.19;100.00
4735;BME280;2381;50.676;12.612;2022-11-15T17:39:35;96563.50;;;8.32;100.00
4735;BME280;2381;50.676;12.612;2022-11-15T17:42:39;96550.25;;;8.40;100.00
4735;BME280;2381;50.676;12.612;2022-11-15T17:45:42;96564.38;;;8.04;100.00
4735;BME280;2381;50.676;12.612;2022-11-15T17:48:47;96566.28;;;7.95;100.00
4735;BME280;2381;50.676;12.612;2022-11-15T17:51:50;96553.50;;;7.86;100.00
4735;BME280;2381;50.676;12.612;2022-11-15T17:54:53;96538.91;;;7.98;100.00
4735;BME280;2381;50.676;12.612;2022-11-15T17:57:56;96526.78;;;7.97;100.00
4735;BME280;2381;50.676;12.612;2022-11-15T18:01:03;96528.06;;;7.86;100.00
4735;BME280;2381;50.676;12.612;2022-11-15T18:04:08;96528.16;;;7.72;100.00
4735;BME280;2381;50.676;12.612;2022-11-15T18:07:11;96504.47;;;7.65;100.00
4735;BME280;2381;50.676;12.612;2022-11-15T18:10:14;96502.72;;;7.72;100.00
4735;BME280;2381;50.676;12.612;2022-11-15T18:13:17;96504.25;;;7.81;100.00
4735;BME280;2381;50.676;12.612;2022-11-15T18:16:21;96505.53;;;7.71;100.00
4735;BME280;2381;50.676;12.612;2022-11-15T18:19:26;96504.97;;;7.75;100.00
4735;BME280;2381;50.676;12.612;2022-11-15T18:22:29;96499.25;;;7.86;100.00